Terminal Aerodrome Forecast
Issued by NWS

Home | Current Version | Previous Version | Text Only | Print | Product List | Glossary On
Versions: 1 2 3 4 5 6 7 8 9 10 11 12 13 14 15
000
FTUS43 KAPX 061130
TAFPLN
TAF
KPLN 061130Z 0612/0712 VRB03KT P6SM BKN250
     FM061500 21009KT P6SM BKN250
     FM070000 25005KT P6SM OVC140
     FM070300 23006KT 4SM SHRA BR OVC024
     FM070800 29007KT 6SM BR OVC007=

USA.gov is the U.S. government's official web portal to all federal, state and local government web resources and services.